1982 BESS (1982202N11165)


On this page: IBTrACS data - Map and Plots - Positions - Intensities - Original source data

Summary

Start Jul 21
End Aug 6
Basin WP
LMI 140 kt
Sources jtwc_wp
tokyo
cma
hko
td9636
In WMO? Yes
Previous storm 1982 FABIO (EP)
Previous in basin 1982 WINONA (WP)
Concurrent storms 1982 DANIEL (EP)
1982 FABIO (EP)
1982 BESS (WP)
1982 ANDY (WP)
1982 GILMA (EP)
1982 HECTOR (EP)
1982 IVA (EP)
1982 CECIL (WP)
1982 JOHN (EP)
Next in basin 1982 ANDY (WP)
Next storm 1982 ANDY (WP)

top of page IBTrACS Data: File Access

top of page HURSAT Data: File Access

Image of storm

top of page Plots:

Map of storm track will not appear if FTP is down
Time series of cyclone Maximum Sustained Wind will not appear if FTP is down
Time series of cyclone Minimum Central Pressure will not appear if FTP is down

top of page Track Data:Position

jtwc_wp tokyo cma hko td9636
Date Lat Lon Lat Lon Lat Lon Lat Lon Lat Lon
1982-07-21 00:00:00 10.6 164.6
1982-07-21 06:00:00 10.6 164.6
1982-07-21 12:00:00 10.6 164.5
1982-07-21 18:00:00 11.0 165.0 10.8 164.3
1982-07-22 00:00:00 11.1 163.8 11.4 164.1 11.1 163.8
1982-07-22 06:00:00 11.6 163.0 11.9 163.3 12.0 162.0 11.6 163.1
1982-07-22 12:00:00 12.2 162.3 12.3 162.4 12.0 161.0 12.2 162.3
1982-07-22 18:00:00 12.8 161.6 12.8 161.5 12.5 160.5 12.9 161.8 12.7 161.6
1982-07-23 00:00:00 13.2 160.8 13.2 160.5 13.2 160.2 13.4 160.6 13.2 160.8
1982-07-23 06:00:00 13.8 159.9 13.7 159.6 13.7 159.8 13.8 159.5 13.8 159.9
1982-07-23 12:00:00 14.4 159.0 14.3 158.6 14.4 158.7 14.6 158.5 14.4 159.0
1982-07-23 18:00:00 15.1 157.9 15.0 157.8 14.9 157.9 15.2 157.7 15.1 158.0
1982-07-24 00:00:00 15.7 157.0 15.6 156.9 15.7 156.9 15.7 156.9 15.7 157.0
1982-07-24 06:00:00 15.9 156.3 16.0 156.2 16.5 156.5 16.1 156.1 16.1 156.3
1982-07-24 12:00:00 16.3 155.6 16.3 155.5 16.6 155.7 16.5 155.4 16.3 155.6
1982-07-24 18:00:00 16.7 154.9 16.6 154.9 16.8 154.8 16.7 154.6 16.7 154.9
1982-07-25 00:00:00 16.9 154.1 16.7 154.0 16.9 154.0 17.0 153.9 16.9 154.1
1982-07-25 06:00:00 17.0 153.3 16.7 153.2 17.0 153.1 17.0 153.2 16.9 153.3
1982-07-25 12:00:00 16.8 152.7 16.7 152.5 16.9 152.5 16.8 152.7 16.8 152.7
1982-07-25 18:00:00 16.6 152.2 16.5 152.1 16.5 152.2 16.5 152.2 16.5 152.3
1982-07-26 00:00:00 16.2 152.0 16.2 151.8 16.2 152.0 16.0 152.0 16.2 152.0
1982-07-26 06:00:00 15.8 151.8 15.8 151.6 15.8 151.9 15.8 151.8 15.8 151.6
1982-07-26 12:00:00 15.5 151.3 15.8 151.7 15.8 151.6 15.7 151.5 15.5 151.3
1982-07-26 18:00:00 15.7 151.3 15.8 151.4 15.7 151.4 15.6 151.3 15.3 151.3
1982-07-27 00:00:00 15.3 151.2 15.2 151.1 15.5 151.0 15.5 151.0 15.3 151.2
jtwc_wp tokyo cma hko td9636
1982-07-27 06:00:00 15.3 150.6 15.4 150.6 15.4 150.5 15.4 150.6 15.2 150.7
1982-07-27 12:00:00 15.4 150.2 15.4 150.1 15.3 150.2 15.6 150.3 15.4 150.2
1982-07-27 18:00:00 15.7 150.0 16.1 149.8 15.8 150.2 16.4 150.0 15.9 150.0
1982-07-28 00:00:00 16.8 149.6 17.3 149.2 17.0 149.6 17.2 149.5 16.8 149.6
1982-07-28 06:00:00 18.2 148.7 18.1 148.2 18.2 148.3 18.1 148.3 17.8 148.4
1982-07-28 12:00:00 18.9 146.9 18.8 146.8 19.0 147.0 18.9 146.9 18.9 146.9
1982-07-28 18:00:00 19.8 145.5 19.8 145.6 19.8 145.6 19.7 145.7 19.8 145.7
1982-07-29 00:00:00 20.6 144.6 20.3 144.4 20.5 144.6 20.4 144.5 20.6 144.6
1982-07-29 06:00:00 21.3 143.7 21.3 143.4 21.4 143.5 21.4 143.4 21.4 143.7
1982-07-29 12:00:00 22.2 142.7 22.1 142.3 22.3 142.2 22.0 142.3 22.2 142.7
1982-07-29 18:00:00 22.7 141.3 22.7 141.2 22.8 141.2 22.7 141.3 22.8 141.4
1982-07-30 00:00:00 23.3 140.2 23.3 140.2 23.2 140.2 23.3 140.2 23.3 140.2
1982-07-30 06:00:00 23.9 139.2 24.0 139.4 24.0 139.4 23.8 139.4 24.0 139.5
1982-07-30 12:00:00 24.7 139.0 24.7 138.7 24.7 138.6 24.5 138.8 24.7 139.0
1982-07-30 18:00:00 25.2 138.1 25.1 138.1 25.0 138.1 25.0 138.3 25.2 138.4
1982-07-31 00:00:00 25.7 137.9 25.4 137.9 25.3 137.9 25.6 137.8 25.7 137.9
1982-07-31 06:00:00 26.2 137.8 26.1 137.7 26.1 137.7 26.2 137.5 26.3 137.6
1982-07-31 12:00:00 27.1 137.4 27.0 137.3 27.1 137.5 26.9 137.3 27.1 137.4
1982-07-31 18:00:00 27.8 137.1 28.0 137.0 28.0 137.3 27.8 137.1 28.0 137.1
1982-08-01 00:00:00 29.2 136.9 29.5 136.9 29.1 137.1 29.3 136.8 29.2 136.9
1982-08-01 06:00:00 30.7 136.9 31.2 136.9 31.0 137.0 30.9 136.7 30.8 137.0
1982-08-01 12:00:00 32.9 137.0 33.1 136.9 33.0 136.9 33.2 136.9 32.9 137.0
1982-08-01 18:00:00 36.3 137.1 36.2 137.0 36.0 137.1 36.1 137.2 35.6 136.7
1982-08-02 00:00:00 38.7 136.2 38.2 136.6 38.2 136.5 38.5 136.6 38.7 136.2
jtwc_wp tokyo cma hko td9636
1982-08-02 06:00:00 40.0 135.5 39.5 136.0 40.0 136.0 39.8 136.1
1982-08-02 12:00:00 40.5 136.0 40.0 136.0
1982-08-02 18:00:00 41.0 136.0 40.3 136.1
1982-08-03 00:00:00 42.0 137.0 40.6 136.2
1982-08-03 06:00:00 42.0 138.0 40.2 137.2
1982-08-03 12:00:00 42.0 139.0 41.0 139.7
1982-08-03 18:00:00 41.8 141.8
1982-08-04 00:00:00 42.0 144.3
1982-08-04 06:00:00 41.3 145.3
1982-08-04 12:00:00 40.5 146.2
1982-08-04 18:00:00 40.2 147.2
1982-08-05 00:00:00 39.8 148.2
1982-08-05 06:00:00 40.2 149.0
1982-08-05 12:00:00 40.6 149.8
1982-08-05 18:00:00 41.1 150.5
1982-08-06 00:00:00 41.7 151.2

top of pageTrack Data:Intensity

jtwc_wp tokyo cma hko td9636
Date Wind Pres Wind Pres Wind Pres Wind Pres Wind Pres
1982-07-21 00:00:00
1982-07-21 06:00:00
1982-07-21 12:00:00
1982-07-21 18:00:00 1004. 25.
1982-07-22 00:00:00 25. 1004. 25.
1982-07-22 06:00:00 25. 1004. 23. 1006. 25.
1982-07-22 12:00:00 25. 1004. 29. 1004. 25.
1982-07-22 18:00:00 30. 1002. 29. 1002. 25. 1000. 25.
1982-07-23 00:00:00 30. 1000. 29. 1000. 25. 1000. 30.
1982-07-23 06:00:00 30. 35. 998. 29. 1000. 30. 999. 30.
1982-07-23 12:00:00 35. 35. 996. 29. 995. 30. 995. 35.
1982-07-23 18:00:00 40. 35. 990. 39. 990. 35. 990. 35.
1982-07-24 00:00:00 45. 50. 985. 39. 986. 45. 985. 45.
1982-07-24 06:00:00 50. 50. 980. 49. 981. 50. 985. 45.
1982-07-24 12:00:00 60. 60. 975. 49. 976. 55. 980. 60.
1982-07-24 18:00:00 65. 65. 970. 58. 971. 60. 970. 60.
1982-07-25 00:00:00 70. 70. 965. 58. 967. 65. 970. 70.
1982-07-25 06:00:00 75. 70. 965. 68. 963. 70. 965. 70.
1982-07-25 12:00:00 80. 80. 960. 68. 960. 75. 960. 80.
1982-07-25 18:00:00 85. 80. 955. 78. 957. 75. 960. 80.
1982-07-26 00:00:00 90. 80. 955. 78. 955. 80. 955. 90.
1982-07-26 06:00:00 95. 85. 950. 78. 952. 85. 950. 90.
1982-07-26 12:00:00 95. 90. 950. 87. 949. 90. 948. 95.
1982-07-26 18:00:00 95. 90. 950. 87. 950. 90. 948. 95.
1982-07-27 00:00:00 95. 90. 950. 87. 949. 90. 948. 95.
jtwc_wp tokyo cma hko td9636
1982-07-27 06:00:00 95. 90. 950. 87. 948. 90. 948. 95.
1982-07-27 12:00:00 95. 90. 950. 87. 948. 90. 948. 95.
1982-07-27 18:00:00 95. 90. 950. 87. 948. 90. 948. 95.
1982-07-28 00:00:00 95. 90. 950. 87. 948. 90. 948. 95.
1982-07-28 06:00:00 100. 90. 945. 87. 943. 90. 948. 95.
1982-07-28 12:00:00 105. 100. 935. 87. 936. 100. 940. 105.
1982-07-28 18:00:00 120. 125. 915. 97. 913. 110. 925. 105.
1982-07-29 00:00:00 135. 125. 900. 126. 901. 125. 900. 135.
1982-07-29 06:00:00 140. 125. 900. 126. 904. 125. 900. 135.
1982-07-29 12:00:00 140. 120. 905. 126. 907. 125. 905. 140.
1982-07-29 18:00:00 135. 120. 910. 126. 911. 120. 910. 140.
1982-07-30 00:00:00 130. 120. 915. 126. 916. 120. 915. 130.
1982-07-30 06:00:00 120. 110. 925. 126. 924. 115. 920. 130.
1982-07-30 12:00:00 115. 100. 935. 117. 933. 105. 934. 115.
1982-07-30 18:00:00 110. 100. 935. 107. 937. 100. 936. 115.
1982-07-31 00:00:00 105. 100. 940. 97. 941. 100. 940. 105.
1982-07-31 06:00:00 100. 100. 945. 97. 946. 95. 945. 105.
1982-07-31 12:00:00 95. 90. 950. 87. 951. 90. 950. 95.
1982-07-31 18:00:00 90. 80. 955. 78. 955. 80. 955. 95.
1982-08-01 00:00:00 85. 70. 960. 68. 959. 75. 960. 85.
1982-08-01 06:00:00 80. 70. 965. 68. 966. 70. 965. 85.
1982-08-01 12:00:00 70. 60. 970. 58. 970. 60. 970. 70.
1982-08-01 18:00:00 50. 45. 974. 49. 974. 50. 974. 70.
1982-08-02 00:00:00 50. 40. 985. 39. 985. 40. 985. 50.
jtwc_wp tokyo cma hko td9636
1982-08-02 06:00:00 40. 990. 39. 990. 30. 990.
1982-08-02 12:00:00 992. 29. 992.
1982-08-02 18:00:00 996. 23. 996.
1982-08-03 00:00:00 1000. 23. 1000.
1982-08-03 06:00:00 1002. 19. 1000.
1982-08-03 12:00:00 1003. 19. 1002.
1982-08-03 18:00:00 19. 1002.
1982-08-04 00:00:00 19. 1002.
1982-08-04 06:00:00 19. 1002.
1982-08-04 12:00:00 19. 1002.
1982-08-04 18:00:00 19. 1002.
1982-08-05 00:00:00 19. 1002.
1982-08-05 06:00:00 19. 1002.
1982-08-05 12:00:00 17. 1004.
1982-08-05 18:00:00 17. 1005.
1982-08-06 00:00:00 17. 1006.

top of page Links to source data

Source Source file Format
jtwc_wp bwp111982.txt ATCF
tokyo bst_all.txt:Line=31079:BESS:8210 JMA text table
cma CH1982BST.txt:Storm=11:Bess CMA text table
hko tc-besttrack-data-current.txt:Line=15165:BESS HKO Text table
td9636 cons_worldwide_trop_cyclone_18710101-19891231-003:Line=28131 TD 9636